CheckWX is a tool to help pilots better visualize weather data.  It is not intended as a substitute for an official pre-flight weather briefing.

13:00:51 UTC

EPSY TAF
Szczytno-Szymany International Airport
Poland
TAF EPSY 261130Z 2612/2621 25010KT 9999 BKN020 TEMPO 2612/2620 -SHRA BKN014TCU PROB40 TEMPO 2612/2618 25015G26KT 4000 SHRASN BKN007 BKN010CB

Mar-26@
12:00 UTC

Mar-26 @ 12:00 UTC

Mar-26@
21:00 UTC

Mar-26 @ 21:00 UTC

TAF EPSY 261130Z 2612/2621 25010KT 9999 BKN020
Wind
  • 250° at 10 KTS
Cloud Levels
  • Broken at 2,000' AGL

Mar-26@
12:00 UTC

Mar-26 @ 12:00 UTC

Mar-26@
18:00 UTC

Mar-26 @ 18:00 UTC

PROB40 TEMPO 2612/2618 25015G26KT 4000 SHRASN BKN007 BKN010CB

Temporary - 40% Likelihood

Temporary - 40% Likelihood during this time.

Wind
  • 250° at 15 KTS
  • {Gusting to 26 KTS
Conditions
Rain, Snow
Cloud Levels
  • Broken at 700' AGL
  • Broken at 1,000' AGL

Mar-26@
12:00 UTC

Mar-26 @ 12:00 UTC

Mar-26@
20:00 UTC

Mar-26 @ 20:00 UTC

TEMPO 2612/2620 -SHRA BKN014TCU

Temporary

Temporary Changes expected for less than half the time period

Conditions
Light Rain
Cloud Levels
  • Broken at 1,400' AGL